Terminal Aerodrome Forecast
Issued by NWS Grand Forks, ND

Home | Current Version | Previous Version | Graphics & Text | Print | Product List | Glossary On
Versions: 1 2 3 4 5 6 7 8 9 10 11 12 13 14 15 16 17 18
000
FTUS43 KFGF 291100
TAFGFK
TAF
KGFK 291127Z 2912/3012 01008KT P6SM BKN012
      TEMPO 2912/2914 BKN005
     FM291400 03010KT P6SM BKN015
      TEMPO 2914/2916 BKN009
     FM292000 06008KT P6SM BKN025
     FM292300 11010KT P6SM SKC=

USA.gov is the U.S. government's official web portal to all federal, state and local government web resources and services.